Time;durP1;ratioP1;P1;durP2;ratioP2;P2;SDS_P1;SDS_P2;PMS_P1;PMS_P2;Temp;Humidity;BMP_temperature;BMP_pressure;BME280_temperature;BME280_humidity;BME280_pressure;Samples;Min_cycle;Max_cycle;Signal;HPM_P1;HPM_P2
2022/10/07 00:02:01;;;;;;;6.70;3.70;;;14.40;99.90;;;;;;5033958;28;20265;-59
2022/10/07 00:04:28;;;;;;;5.23;2.80;;;14.40;99.90;;;;;;5033905;28;20219;-59
2022/10/07 00:06:54;;;;;;;6.53;2.93;;;14.40;99.90;;;;;;5035011;28;20231;-59
2022/10/07 00:09:21;;;;;;;6.10;2.90;;;14.40;99.90;;;;;;5034231;28;20209;-60
2022/10/07 00:11:48;;;;;;;7.33;3.37;;;14.30;99.90;;;;;;5035017;28;20316;-61
2022/10/07 00:14:15;;;;;;;6.30;3.50;;;14.30;99.90;;;;;;5033910;28;20210;-59
2022/10/07 00:16:41;;;;;;;5.83;3.63;;;14.30;99.90;;;;;;5035743;28;20213;-59
2022/10/07 00:19:11;;;;;;;10.40;3.67;;;14.20;99.90;;;;;;5034695;28;20253;-60
2022/10/07 00:21:39;;;;;;;6.80;3.27;;;14.10;99.90;;;;;;5034724;28;20245;-59
2022/10/07 00:24:07;;;;;;;5.50;3.37;;;14.10;99.90;;;;;;5034182;28;20230;-59
2022/10/07 00:26:36;;;;;;;7.23;3.40;;;14.20;99.90;;;;;;5034472;28;20217;-60
2022/10/07 00:29:05;;;;;;;7.03;3.43;;;14.10;99.90;;;;;;5034532;28;20212;-60
2022/10/07 00:31:33;;;;;;;6.63;3.23;;;13.90;99.90;;;;;;5034257;28;20256;-59
2022/10/07 00:34:01;;;;;;;8.83;3.43;;;13.80;99.90;;;;;;5034949;28;20203;-59
2022/10/07 00:36:31;;;;;;;6.40;3.27;;;13.80;99.90;;;;;;5035648;28;20209;-59
2022/10/07 00:38:59;;;;;;;8.47;3.37;;;14.00;99.90;;;;;;5037439;28;20206;-59
2022/10/07 00:41:31;;;;;;;8.63;3.67;;;14.20;99.90;;;;;;5037706;28;20230;-59
2022/10/07 00:43:58;;;;;;;6.80;3.33;;;14.30;99.90;;;;;;5037200;28;20238;-59
2022/10/07 00:46:33;;;;;;;6.30;3.33;;;14.20;99.90;;;;;;5042795;28;20195;-59
2022/10/07 00:49:02;;;;;;;5.97;3.27;;;14.30;99.90;;;;;;5042653;28;20213;-58
2022/10/07 00:51:32;;;;;;;13.13;3.57;;;14.50;99.90;;;;;;5041863;28;20245;-59
2022/10/07 00:54:01;;;;;;;5.03;3.23;;;14.60;99.90;;;;;;5040808;28;20290;-58
2022/10/07 00:56:28;;;;;;;7.43;3.50;;;14.60;99.90;;;;;;5040033;28;20210;-59
2022/10/07 00:58:57;;;;;;;7.93;3.23;;;14.70;99.90;;;;;;5039423;28;20206;-59
2022/10/07 01:01:25;;;;;;;8.07;2.83;;;14.60;99.90;;;;;;5038118;28;20313;-59
2022/10/07 01:03:53;;;;;;;3.40;2.63;;;14.60;99.90;;;;;;5038171;28;20780;-59
2022/10/07 01:06:20;;;;;;;5.17;2.53;;;14.70;99.90;;;;;;5037986;28;20221;-59
2022/10/07 01:08:51;;;;;;;5.63;2.63;;;14.60;99.90;;;;;;5038354;28;20212;-59
2022/10/07 01:11:33;;;;;;;7.70;2.53;;;14.60;99.90;;;;;;5037833;28;20337;-59
2022/10/07 01:14:09;;;;;;;7.50;2.50;;;14.60;99.90;;;;;;5036706;28;20217;-59
2022/10/07 01:16:43;;;;;;;6.90;2.50;;;14.60;99.90;;;;;;5038190;28;20288;-59
2022/10/07 01:19:31;;;;;;;5.43;2.53;;;14.60;99.90;;;;;;5038813;28;20198;-59
2022/10/07 01:22:10;;;;;;;8.37;2.80;;;14.60;99.90;;;;;;5039147;28;20258;-59
2022/10/07 01:24:42;;;;;;;8.60;2.30;;;14.60;99.90;;;;;;5039177;28;20214;-59
2022/10/07 01:27:13;;;;;;;7.97;2.67;;;14.70;99.90;;;;;;5039834;28;20666;-58
2022/10/07 01:29:44;;;;;;;4.13;2.23;;;14.80;99.90;;;;;;5040009;28;20207;-59
2022/10/07 01:32:16;;;;;;;5.73;2.60;;;14.80;99.90;;;;;;5038336;28;20210;-59
2022/10/07 01:34:45;;;;;;;6.20;2.33;;;14.90;99.90;;;;;;5038214;28;20210;-58
2022/10/07 01:37:16;;;;;;;5.93;2.30;;;14.90;99.90;;;;;;5038609;28;20690;-58
2022/10/07 01:39:48;;;;;;;3.27;2.10;;;14.90;99.90;;;;;;5038535;28;20256;-58
2022/10/07 01:42:17;;;;;;;7.07;2.60;;;14.90;99.90;;;;;;5037865;28;20209;-58
2022/10/07 01:44:47;;;;;;;5.27;2.20;;;15.00;99.90;;;;;;5037417;28;20210;-58
2022/10/07 01:47:14;;;;;;;4.77;2.07;;;15.00;99.90;;;;;;5037427;28;20560;-59
2022/10/07 01:49:41;;;;;;;6.63;2.10;;;15.00;99.90;;;;;;5037433;28;20206;-58
2022/10/07 01:52:23;;;;;;;8.13;3.03;;;15.00;99.90;;;;;;5037898;28;20220;-58
2022/10/07 01:55:15;;;;;;;11.17;3.67;;;15.10;99.90;;;;;;5036158;28;20248;-58
2022/10/07 01:57:53;;;;;;;13.17;5.87;;;15.10;99.90;;;;;;5036809;28;20210;-59
2022/10/07 02:00:20;;;;;;;10.80;5.80;;;15.10;99.90;;;;;;5037903;28;20234;-59
2022/10/07 02:03:01;;;;;;;10.43;4.47;;;15.20;99.90;;;;;;5036583;28;20667;-59
2022/10/07 02:05:40;;;;;;;13.67;4.60;;;15.20;99.90;;;;;;5035539;28;20214;-59
2022/10/07 02:08:25;;;;;;;6.77;3.90;;;15.20;99.90;;;;;;5035423;28;20209;-59
2022/10/07 02:11:12;;;;;;;9.30;3.33;;;15.20;99.90;;;;;;5035089;28;20227;-59
2022/10/07 02:13:46;;;;;;;6.10;3.33;;;15.20;99.90;;;;;;5034989;28;20202;-59
2022/10/07 02:16:18;;;;;;;9.37;3.10;;;15.10;99.90;;;;;;5035606;28;20212;-57
2022/10/07 02:18:49;;;;;;;7.23;3.00;;;15.10;99.90;;;;;;5035586;28;20686;-57
2022/10/07 02:21:21;;;;;;;6.43;2.67;;;15.20;99.90;;;;;;5035491;28;20234;-57
2022/10/07 02:23:49;;;;;;;5.70;2.63;;;15.20;99.90;;;;;;5035376;28;20234;-57
2022/10/07 02:26:21;;;;;;;6.57;2.80;;;15.00;99.90;;;;;;5035382;28;20300;-58
2022/10/07 02:28:52;;;;;;;5.47;3.13;;;14.90;99.90;;;;;;5034571;28;20214;-57
2022/10/07 02:31:25;;;;;;;5.95;2.55;;;14.90;99.90;;;;;;5034478;28;20265;-57
2022/10/07 02:33:56;;;;;;;6.33;2.90;;;14.90;99.90;;;;;;5034323;28;20253;-57
2022/10/07 02:36:27;;;;;;;8.57;3.00;;;15.00;99.90;;;;;;5035086;28;20217;-57
2022/10/07 02:38:59;;;;;;;7.07;2.90;;;15.00;99.90;;;;;;5034889;28;20210;-57
2022/10/07 02:41:34;;;;;;;4.87;2.93;;;14.90;99.90;;;;;;5034020;28;20231;-57
2022/10/07 02:44:10;;;;;;;6.23;2.70;;;14.90;99.90;;;;;;5034173;28;20284;-57
2022/10/07 02:46:42;;;;;;;5.73;2.90;;;15.00;99.90;;;;;;5033900;28;20533;-57
2022/10/07 02:49:13;;;;;;;9.33;2.93;;;15.10;99.90;;;;;;5034587;28;20220;-58
2022/10/07 02:51:47;;;;;;;6.00;2.30;;;15.10;99.90;;;;;;5034661;28;20226;-58
2022/10/07 02:54:16;;;;;;;3.63;2.40;;;15.10;99.90;;;;;;5034562;28;20729;-58
2022/10/07 02:56:44;;;;;;;5.43;2.50;;;15.20;99.90;;;;;;5035201;28;20352;-57
2022/10/07 02:59:14;;;;;;;3.53;2.80;;;15.30;99.90;;;;;;5035212;28;20210;-58
2022/10/07 03:01:46;;;;;;;7.13;3.27;;;15.30;99.90;;;;;;5035158;28;20226;-58
2022/10/07 03:04:13;;;;;;;5.43;2.70;;;15.30;99.90;;;;;;5035410;28;20226;-58
2022/10/07 03:06:42;;;;;;;6.47;3.03;;;15.40;99.90;;;;;;5035248;28;20206;-57
2022/10/07 03:09:09;;;;;;;6.23;2.40;;;15.40;99.90;;;;;;5035089;28;20278;-58
2022/10/07 03:11:39;;;;;;;5.13;2.53;;;15.40;99.90;;;;;;5035058;28;20222;-58
2022/10/07 03:14:06;;;;;;;5.00;2.73;;;15.30;99.90;;;;;;5034426;28;20240;-59
2022/10/07 03:16:34;;;;;;;5.07;2.53;;;15.30;99.90;;;;;;5034703;28;20241;-58
2022/10/07 03:19:01;;;;;;;8.10;2.60;;;15.30;99.90;;;;;;5034809;28;20463;-59
2022/10/07 03:21:28;;;;;;;8.40;2.77;;;15.30;99.90;;;;;;5034583;28;20596;-59
2022/10/07 03:23:56;;;;;;;6.27;2.27;;;15.30;99.90;;;;;;5034129;28;20226;-58
2022/10/07 03:26:22;;;;;;;3.57;2.23;;;15.30;99.90;;;;;;5034333;28;20206;-58
2022/10/07 03:28:49;;;;;;;3.60;2.20;;;15.20;99.90;;;;;;5034392;28;20212;-58
2022/10/07 03:31:16;;;;;;;3.90;2.33;;;15.20;99.90;;;;;;5034494;28;20709;-58
2022/10/07 03:33:44;;;;;;;3.47;1.97;;;15.20;99.90;;;;;;5034033;28;20202;-58
2022/10/07 03:36:12;;;;;;;5.10;2.20;;;15.10;99.90;;;;;;5033860;28;20206;-58
2022/10/07 03:38:39;;;;;;;4.03;2.40;;;15.10;99.90;;;;;;5034289;28;20220;-58
2022/10/07 03:41:06;;;;;;;5.80;2.37;;;15.10;99.90;;;;;;5033592;28;20237;-58
2022/10/07 03:43:33;;;;;;;6.03;2.20;;;15.00;99.90;;;;;;5033598;28;20280;-58
2022/10/07 03:46:01;;;;;;;6.50;2.57;;;15.00;99.90;;;;;;5033495;28;20249;-59
2022/10/07 03:48:29;;;;;;;4.80;3.30;;;15.00;99.90;;;;;;5034590;28;20203;-58
2022/10/07 03:50:58;;;;;;;7.23;2.60;;;15.00;99.90;;;;;;5033942;28;20226;-58
2022/10/07 03:53:27;;;;;;;6.73;2.87;;;15.00;99.90;;;;;;5033785;28;20233;-58
2022/10/07 03:55:54;;;;;;;6.03;2.43;;;15.00;99.90;;;;;;5034118;28;20210;-59
2022/10/07 03:58:21;;;;;;;6.13;2.20;;;15.00;99.90;;;;;;5034379;28;20212;-58
2022/10/07 04:00:47;;;;;;;9.27;2.60;;;15.00;99.90;;;;;;5034420;28;20241;-57
2022/10/07 04:03:17;;;;;;;8.40;4.13;;;15.00;99.90;;;;;;5034134;28;20210;-58
2022/10/07 04:05:45;;;;;;;7.67;4.03;;;15.10;99.90;;;;;;5034291;28;20343;-58
2022/10/07 04:08:16;;;;;;;7.87;3.40;;;15.20;99.90;;;;;;5033895;28;20214;-58
2022/10/07 04:10:43;;;;;;;9.63;4.05;;;15.20;99.90;;;;;;5033945;28;20328;-58
2022/10/07 04:13:09;;;;;;;7.10;3.90;;;15.20;99.90;;;;;;5033088;28;20216;-58
2022/10/07 04:15:36;;;;;;;7.53;4.73;;;15.30;99.90;;;;;;5033821;28;20206;-58
2022/10/07 04:18:03;;;;;;;8.03;4.73;;;15.30;99.90;;;;;;5034264;28;20206;-58
2022/10/07 04:20:30;;;;;;;7.67;3.80;;;15.40;99.90;;;;;;5036885;28;20222;-58
2022/10/07 04:22:57;;;;;;;5.70;3.60;;;15.40;99.90;;;;;;5038320;28;20210;-58
2022/10/07 04:25:34;;;;;;;13.13;7.57;;;15.30;99.90;;;;;;5037240;28;20228;-58
2022/10/07 04:28:03;;;;;;;7.10;3.70;;;15.30;99.90;;;;;;5038199;28;20271;-58
2022/10/07 04:30:32;;;;;;;7.13;4.28;;;15.30;99.90;;;;;;5038934;28;20241;-57
2022/10/07 04:32:59;;;;;;;8.93;3.37;;;15.40;99.90;;;;;;5039790;28;20698;-58
2022/10/07 04:35:26;;;;;;;6.60;3.07;;;15.40;99.90;;;;;;5038486;28;20206;-57
2022/10/07 04:37:53;;;;;;;6.53;3.60;;;15.30;99.90;;;;;;5040011;28;20232;-58
2022/10/07 04:40:22;;;;;;;7.17;2.83;;;15.30;99.90;;;;;;5039129;28;20229;-59
2022/10/07 04:45:35;;;;;;;6.57;3.53;;;15.40;99.90;;;;;;5038042;28;20697;-58
2022/10/07 04:48:04;;;;;;;5.27;3.67;;;15.40;99.90;;;;;;5037824;28;20210;-58
2022/10/07 04:50:32;;;;;;;7.37;4.00;;;15.30;99.90;;;;;;5038247;28;20226;-57
2022/10/07 04:52:58;;;;;;;8.33;3.87;;;15.20;99.90;;;;;;5037195;28;20646;-59
2022/10/07 04:55:27;;;;;;;6.67;3.10;;;15.20;99.90;;;;;;5036689;28;20198;-58
2022/10/07 04:57:55;;;;;;;9.30;5.63;;;15.20;99.90;;;;;;5037135;28;20206;-58
2022/10/07 05:00:21;;;;;;;5.10;2.97;;;15.20;99.90;;;;;;5036625;28;20233;-59
2022/10/07 05:02:49;;;;;;;6.57;2.63;;;15.20;99.90;;;;;;5036818;28;20214;-59
2022/10/07 05:05:16;;;;;;;6.30;2.57;;;15.10;99.90;;;;;;5036528;28;20257;-59
2022/10/07 05:07:43;;;;;;;8.47;3.07;;;15.00;99.90;;;;;;5036538;28;20233;-59
2022/10/07 05:10:10;;;;;;;4.47;2.50;;;14.80;99.90;;;;;;5036343;28;20234;-59
2022/10/07 05:12:39;;;;;;;8.77;3.03;;;14.60;99.90;;;;;;5036262;28;20689;-58
2022/10/07 05:15:09;;;;;;;4.03;2.87;;;14.50;99.90;;;;;;5036200;28;20202;-58
2022/10/07 05:17:35;;;;;;;7.20;2.70;;;14.50;99.90;;;;;;5037621;28;20245;-58
2022/10/07 05:20:03;;;;;;;7.97;3.13;;;14.40;99.90;;;;;;5037856;28;20710;-58
2022/10/07 05:22:30;;;;;;;9.93;3.00;;;14.20;99.90;;;;;;5037718;28;20225;-59
2022/10/07 05:24:57;;;;;;;7.03;3.00;;;14.00;99.90;;;;;;5036395;28;20232;-58
2022/10/07 05:27:24;;;;;;;8.27;2.87;;;14.00;99.90;;;;;;5036984;28;20206;-58
2022/10/07 05:29:50;;;;;;;5.83;3.00;;;14.00;99.90;;;;;;5036496;28;20210;-58
2022/10/07 05:32:20;;;;;;;7.20;2.87;;;14.10;99.90;;;;;;5035354;28;20206;-58
2022/10/07 05:34:46;;;;;;;8.43;2.67;;;14.10;99.90;;;;;;5035727;28;20345;-59
2022/10/07 05:37:13;;;;;;;8.20;2.97;;;14.20;99.90;;;;;;5036404;28;20233;-58
2022/10/07 05:39:40;;;;;;;6.37;2.80;;;14.10;99.90;;;;;;5036070;28;20207;-59
2022/10/07 05:42:08;;;;;;;9.10;2.90;;;14.10;99.90;;;;;;5035814;28;20211;-58
2022/10/07 05:44:36;;;;;;;7.83;4.20;;;14.10;99.90;;;;;;5035271;28;20229;-59
2022/10/07 05:47:03;;;;;;;6.40;2.90;;;14.20;99.90;;;;;;5036052;28;20214;-58
2022/10/07 05:49:31;;;;;;;8.60;3.57;;;14.40;99.90;;;;;;5036271;28;20206;-59
2022/10/07 05:51:58;;;;;;;4.47;2.90;;;14.60;99.90;;;;;;5036436;28;20230;-58
2022/10/07 05:54:25;;;;;;;5.80;3.00;;;14.80;99.90;;;;;;5035596;28;20202;-59
2022/10/07 05:56:52;;;;;;;6.90;3.07;;;14.80;99.90;;;;;;5036052;28;20206;-58
2022/10/07 05:59:19;;;;;;;3.77;2.87;;;14.70;99.90;;;;;;5035737;28;20217;-58
2022/10/07 06:01:46;;;;;;;7.40;3.30;;;14.60;99.90;;;;;;5035801;28;20261;-59
2022/10/07 06:04:13;;;;;;;6.23;2.90;;;14.60;99.90;;;;;;5035529;28;20228;-57
2022/10/07 06:06:43;;;;;;;7.90;3.03;;;14.70;99.90;;;;;;5036413;28;20728;-57
2022/10/07 06:14:40;;;;;;;5.33;3.23;;;15.30;99.90;;;;;;5035589;28;20270;-57
2022/10/07 06:17:07;;;;;;;7.90;3.40;;;15.50;99.90;;;;;;5036002;28;20589;-58
2022/10/07 06:19:36;;;;;;;6.13;3.27;;;15.60;99.90;;;;;;5036430;28;20213;-58
2022/10/07 06:22:05;;;;;;;5.70;3.63;;;15.70;99.90;;;;;;5036764;28;20202;-58
2022/10/07 06:24:32;;;;;;;7.70;3.40;;;15.80;99.90;;;;;;5034662;28;20716;-58
2022/10/07 06:26:59;;;;;;;8.90;3.40;;;15.90;99.90;;;;;;5036310;28;20214;-57
2022/10/07 06:29:27;;;;;;;7.13;2.90;;;16.00;99.90;;;;;;5036028;28;20245;-58
2022/10/07 06:31:55;;;;;;;5.27;2.93;;;16.10;99.90;;;;;;5035946;28;20308;-59
2022/10/07 06:34:21;;;;;;;7.03;3.13;;;16.20;99.90;;;;;;5035699;28;20284;-58
2022/10/07 06:36:48;;;;;;;6.33;3.27;;;16.40;99.90;;;;;;5036178;28;20202;-58
2022/10/07 06:39:17;;;;;;;5.80;2.75;;;16.40;99.90;;;;;;5035812;28;20211;-57
2022/10/07 06:41:44;;;;;;;5.43;3.15;;;16.60;99.90;;;;;;5035543;28;20226;-58
2022/10/07 06:44:11;;;;;;;5.87;2.77;;;16.70;99.90;;;;;;5035378;28;20317;-58
2022/10/07 06:46:38;;;;;;;6.60;3.00;;;16.80;99.90;;;;;;5035404;28;20209;-58
2022/10/07 06:49:05;;;;;;;5.00;2.72;;;17.00;99.90;;;;;;5035913;28;20206;-58
2022/10/07 06:51:32;;;;;;;5.32;2.95;;;17.10;99.90;;;;;;5036056;28;20729;-57
2022/10/07 06:53:59;;;;;;;6.00;2.70;;;17.20;99.90;;;;;;5034977;28;20297;-58
2022/10/07 06:56:27;;;;;;;7.95;3.40;;;17.40;99.90;;;;;;5035562;28;20213;-57
2022/10/07 06:58:54;;;;;;;7.68;2.80;;;17.50;99.90;;;;;;5035491;28;20210;-58
2022/10/07 07:01:20;;;;;;;10.05;2.88;;;17.60;99.90;;;;;;5035625;28;20260;-59
2022/10/07 07:03:47;;;;;;;7.50;2.88;;;17.70;99.90;;;;;;5035135;28;20578;-57
2022/10/07 07:06:14;;;;;;;5.10;2.75;;;17.70;99.90;;;;;;5035167;28;20230;-58
2022/10/07 07:08:41;;;;;;;6.00;2.70;;;17.80;99.90;;;;;;5035915;28;20260;-58
2022/10/07 07:13:53;;;;;;;9.10;2.80;;;17.90;99.90;;;;;;5034976;28;20606;-57
2022/10/07 07:16:20;;;;;;;6.60;2.70;;;18.00;99.90;;;;;;5035133;28;20210;-58
2022/10/07 07:18:51;;;;;;;8.00;2.58;;;18.10;99.90;;;;;;5035510;28;20377;-57
2022/10/07 07:21:20;;;;;;;7.20;2.85;;;18.30;99.90;;;;;;5034981;28;20252;-57
2022/10/07 07:23:47;;;;;;;7.88;2.92;;;18.40;99.90;;;;;;5034311;28;20210;-57
2022/10/07 07:26:14;;;;;;;7.60;2.83;;;18.50;99.90;;;;;;5034214;28;20226;-57
2022/10/07 07:28:41;;;;;;;8.23;3.05;;;18.70;99.90;;;;;;5035153;28;20213;-57
2022/10/07 07:31:11;;;;;;;5.88;2.65;;;18.80;99.90;;;;;;5067379;22;20260;-60
2022/10/07 07:33:39;;;;;;;5.78;2.38;;;18.90;99.90;;;;;;5051649;28;20205;-57
2022/10/07 07:36:15;;;;;;;5.80;2.65;;;19.00;99.90;;;;;;5052069;28;20197;-58
2022/10/07 07:38:42;;;;;;;5.75;2.70;;;19.10;99.90;;;;;;5052081;28;20209;-58
2022/10/07 07:41:09;;;;;;;5.82;2.53;;;19.20;99.90;;;;;;5051834;28;20225;-56
2022/10/07 07:43:36;;;;;;;6.57;2.53;;;19.20;99.90;;;;;;5051274;28;20213;-56
2022/10/07 07:46:03;;;;;;;4.50;2.67;;;19.20;99.90;;;;;;5051663;28;20597;-56
2022/10/07 07:48:31;;;;;;;5.88;2.53;;;19.40;99.90;;;;;;5052068;28;20208;-56
2022/10/07 07:50:59;;;;;;;6.63;3.05;;;19.60;99.90;;;;;;5052021;28;20716;-58
2022/10/07 07:53:26;;;;;;;5.93;2.88;;;19.90;99.90;;;;;;5050666;28;20209;-57
2022/10/07 07:55:53;;;;;;;6.85;2.70;;;20.30;99.90;;;;;;5051517;28;20251;-58
2022/10/07 07:58:21;;;;;;;4.97;2.38;;;20.70;99.90;;;;;;5051608;28;20206;-57
2022/10/07 08:00:57;;;;;;;5.30;2.50;;;21.00;99.90;;;;;;5051950;28;20256;-57
2022/10/07 08:03:24;;;;;;;6.68;2.75;;;21.20;99.90;;;;;;5052019;28;20641;-56
2022/10/07 08:05:53;;;;;;;6.63;2.30;;;21.30;99.90;;;;;;5052002;28;20232;-54
2022/10/07 08:08:20;;;;;;;5.15;2.33;;;21.50;99.90;;;;;;5051870;28;20209;-54
2022/10/07 08:10:46;;;;;;;7.95;2.55;;;21.70;99.90;;;;;;5051488;28;20240;-56
2022/10/07 08:13:13;;;;;;;5.95;2.80;;;21.70;99.90;;;;;;5051761;28;20209;-55
2022/10/07 08:15:40;;;;;;;5.93;2.53;;;21.80;99.90;;;;;;5051308;28;20385;-55
2022/10/07 08:18:07;;;;;;;7.47;3.60;;;21.90;99.90;;;;;;5051620;28;20201;-56
2022/10/07 08:20:35;;;;;;;4.35;2.20;;;21.70;99.90;;;;;;5051552;28;20275;-53
2022/10/07 08:23:03;;;;;;;3.70;1.65;;;21.70;99.90;;;;;;5051383;28;20205;-53
2022/10/07 08:25:30;;;;;;;3.65;2.05;;;21.70;99.90;;;;;;5050970;28;20238;-53
2022/10/07 08:27:57;;;;;;;5.00;3.22;;;21.60;99.90;;;;;;5051606;28;20589;-54
2022/10/07 08:30:24;;;;;;;5.75;2.42;;;21.60;99.90;;;;;;5051280;28;20720;-54
2022/10/07 08:32:51;;;;;;;6.35;2.58;;;21.70;99.90;;;;;;5051572;28;20575;-54
2022/10/07 08:35:17;;;;;;;5.45;2.58;;;21.80;99.90;;;;;;5051246;28;20213;-55
2022/10/07 08:37:44;;;;;;;4.53;2.05;;;21.80;99.90;;;;;;5051226;28;20228;-54
2022/10/07 08:40:16;;;;;;;5.22;2.20;;;21.90;99.90;;;;;;5051509;28;20213;-55
2022/10/07 08:42:44;;;;;;;4.05;1.75;;;21.90;99.90;;;;;;5051461;28;20598;-56
2022/10/07 08:45:20;;;;;;;6.78;1.90;;;21.90;99.90;;;;;;5050861;28;20221;-54
2022/10/07 08:47:50;;;;;;;5.50;2.30;;;21.90;99.90;;;;;;5045415;28;20585;-56
2022/10/07 08:50:20;;;;;;;5.10;2.00;;;21.80;99.90;;;;;;5050058;28;20236;-54
2022/10/07 08:52:51;;;;;;;4.60;2.08;;;21.70;99.90;;;;;;5050327;28;20696;-58
2022/10/07 08:55:26;;;;;;;8.07;5.20;;;21.70;99.90;;;;;;5049872;28;20212;-57
2022/10/07 08:58:15;;;;;;;2.67;1.90;;;21.80;99.90;;;;;;5049992;28;20325;-54
2022/10/07 09:00:48;;;;;;;7.75;2.53;;;21.70;99.90;;;;;;5050249;28;20360;-53
2022/10/07 09:03:29;;;;;;;4.68;2.00;;;21.70;99.90;;;;;;5050438;28;20217;-53
2022/10/07 09:05:58;;;;;;;5.25;2.25;;;21.70;99.90;;;;;;5051702;28;20340;-54
2022/10/07 09:08:31;;;;;;;4.25;1.77;;;21.80;99.90;;;;;;5053946;28;20250;-59
2022/10/07 09:11:14;;;;;;;6.32;2.03;;;21.70;99.90;;;;;;5054689;28;20615;-59
2022/10/07 09:13:45;;;;;;;3.95;2.05;;;21.60;99.90;;;;;;5054422;28;20218;-59
2022/10/07 09:16:16;;;;;;;4.43;1.90;;;21.70;99.90;;;;;;5054508;28;20244;-60
2022/10/07 09:18:49;;;;;;;3.15;1.80;;;21.80;99.90;;;;;;5054533;28;20700;-58
2022/10/07 09:21:22;;;;;;;4.40;1.60;;;21.90;99.90;;;;;;5054090;28;20316;-59
2022/10/07 09:23:54;;;;;;;5.20;2.00;;;22.00;99.90;;;;;;5053756;28;20213;-58
2022/10/07 09:26:24;;;;;;;8.30;2.05;;;22.10;99.90;;;;;;5054481;28;20225;-57
2022/10/07 09:28:51;;;;;;;7.18;2.00;;;22.20;99.90;;;;;;5054479;28;20205;-58
2022/10/07 09:31:20;;;;;;;8.45;2.00;;;22.20;99.90;;;;;;5054137;28;20233;-58
2022/10/07 09:33:49;;;;;;;5.85;2.03;;;22.20;99.90;;;;;;5053572;28;20263;-58
2022/10/07 09:36:18;;;;;;;4.95;1.90;;;22.20;99.90;;;;;;5054113;28;20197;-57
2022/10/07 09:38:47;;;;;;;5.75;1.88;;;22.30;99.90;;;;;;5054320;28;20229;-58
2022/10/07 09:41:18;;;;;;;4.13;2.10;;;22.30;99.90;;;;;;5054284;28;20232;-57
2022/10/07 09:44:01;;;;;;;6.70;2.15;;;22.40;99.90;;;;;;5053904;28;20684;-58
2022/10/07 09:46:38;;;;;;;4.63;1.95;;;22.30;99.90;;;;;;5054077;28;20619;-56
2022/10/07 09:49:06;;;;;;;4.97;2.08;;;22.40;99.90;;;;;;5053872;28;20673;-59
2022/10/07 09:51:34;;;;;;;5.97;2.30;;;22.30;99.90;;;;;;5053778;28;20225;-58
2022/10/07 09:54:02;;;;;;;5.35;2.35;;;22.30;99.90;;;;;;5053260;28;20306;-59
2022/10/07 09:56:37;;;;;;;5.68;2.22;;;22.40;99.90;;;;;;5053819;28;20287;-57
2022/10/07 09:59:18;;;;;;;5.30;3.17;;;22.40;99.90;;;;;;5053604;28;20209;-57
2022/10/07 10:01:50;;;;;;;4.30;1.98;;;22.40;99.90;;;;;;5053742;28;20287;-57
2022/10/07 10:04:18;;;;;;;5.88;2.40;;;22.40;99.90;;;;;;5053251;28;20267;-57
2022/10/07 10:06:47;;;;;;;3.90;2.10;;;22.30;99.90;;;;;;5053636;28;20271;-58
2022/10/07 10:09:19;;;;;;;3.80;2.38;;;22.20;99.90;;;;;;5053740;28;20217;-57
2022/10/07 10:11:46;;;;;;;5.85;2.10;;;22.10;99.90;;;;;;5053554;28;20264;-57
2022/10/07 10:14:35;;;;;;;5.60;2.00;;;22.00;99.90;;;;;;5052793;28;20205;-58
2022/10/07 10:17:03;;;;;;;4.20;2.00;;;21.80;99.90;;;;;;5052578;28;20673;-58
2022/10/07 10:19:30;;;;;;;6.53;2.42;;;21.80;99.90;;;;;;5053343;28;20209;-56
2022/10/07 10:21:58;;;;;;;6.95;2.38;;;21.80;99.90;;;;;;5053167;28;20234;-56
2022/10/07 10:27:16;;;;;;;5.07;2.45;;;22.00;99.90;;;;;;5050450;28;20229;-57
2022/10/07 10:29:54;;;;;;;5.20;2.38;;;22.20;99.90;;;;;;5037675;28;20202;-62
2022/10/07 10:33:06;;;;;;;5.75;2.65;;;22.30;99.90;;;;;;5051858;28;20746;-63
2022/10/07 10:35:37;;;;;;;5.85;2.60;;;22.40;99.90;;;;;;5044459;28;20204;-60
2022/10/07 10:38:25;;;;;;;10.07;2.95;;;22.60;99.90;;;;;;5051735;28;20216;-60
2022/10/07 10:41:01;;;;;;;7.13;2.65;;;22.70;99.90;;;;;;5052065;28;20221;-62
2022/10/07 10:43:35;;;;;;;5.45;2.88;;;22.70;99.90;;;;;;5052273;28;20205;-64
2022/10/07 10:46:24;;;;;;;6.32;2.85;;;22.70;99.90;;;;;;5051012;28;20224;-60
2022/10/07 10:48:55;;;;;;;4.75;2.75;;;22.60;99.90;;;;;;5051087;28;20237;-63
2022/10/07 10:51:37;;;;;;;8.30;2.88;;;22.60;99.90;;;;;;5052017;28;20229;-63
2022/10/07 10:54:15;;;;;;;6.03;2.75;;;22.70;99.90;;;;;;5051301;28;20209;-62
2022/10/07 10:56:47;;;;;;;5.50;2.90;;;22.70;99.90;;;;;;5051547;28;20236;-64
2022/10/07 10:59:29;;;;;;;4.05;2.80;;;22.80;99.90;;;;;;5051502;28;20746;-60
2022/10/07 11:02:15;;;;;;;3.88;2.58;;;22.80;99.90;;;;;;5052063;28;20226;-61
2022/10/07 11:04:45;;;;;;;4.80;2.83;;;22.90;99.90;;;;;;5051146;28;20208;-61
2022/10/07 11:07:20;;;;;;;4.95;2.97;;;23.10;99.90;;;;;;5051208;28;20234;-61
2022/10/07 11:09:51;;;;;;;7.47;2.78;;;23.20;99.90;;;;;;5051216;28;20268;-59
2022/10/07 11:12:23;;;;;;;4.57;3.10;;;23.20;99.90;;;;;;5051283;28;20237;-60
2022/10/07 11:14:56;;;;;;;6.28;3.22;;;23.30;99.90;;;;;;5050719;28;20618;-58
2022/10/07 11:17:29;;;;;;;7.82;3.63;;;23.30;99.90;;;;;;5047902;28;20208;-62
2022/10/07 11:20:07;;;;;;;7.80;3.80;;;23.30;99.90;;;;;;5047054;28;20526;-60
2022/10/07 11:22:38;;;;;;;5.97;3.25;;;23.30;99.90;;;;;;5050535;28;20304;-59
2022/10/07 11:25:14;;;;;;;7.03;3.70;;;23.40;99.90;;;;;;5050723;28;20206;-61
2022/10/07 11:27:45;;;;;;;5.95;3.17;;;23.40;99.90;;;;;;5051313;28;20278;-59
2022/10/07 11:30:17;;;;;;;8.73;3.95;;;23.40;99.90;;;;;;5052039;28;20213;-59
2022/10/07 11:32:54;;;;;;;6.35;3.70;;;23.50;99.90;;;;;;5053794;28;20706;-63
2022/10/07 11:35:27;;;;;;;5.97;3.50;;;23.50;99.90;;;;;;5053585;28;20568;-57
2022/10/07 11:38:00;;;;;;;8.77;3.63;;;23.40;99.90;;;;;;5051710;28;20212;-60
2022/10/07 11:40:31;;;;;;;8.13;4.40;;;23.60;99.90;;;;;;5050676;28;20233;-58
2022/10/07 11:43:04;;;;;;;7.93;3.58;;;23.60;99.90;;;;;;5050719;28;20228;-61
2022/10/07 11:45:38;;;;;;;8.00;5.25;;;23.50;99.90;;;;;;5049949;28;20291;-62
2022/10/07 11:48:13;;;;;;;10.05;4.78;;;23.50;99.90;;;;;;5050535;28;20213;-59
2022/10/07 11:50:53;;;;;;;9.65;4.68;;;23.40;99.90;;;;;;5050222;28;20252;-63
2022/10/07 11:53:23;;;;;;;7.47;3.75;;;23.50;99.90;;;;;;5052329;28;20202;-58
2022/10/07 11:55:57;;;;;;;9.82;4.53;;;23.50;99.90;;;;;;5051985;28;20202;-59
2022/10/07 11:58:30;;;;;;;7.45;3.90;;;23.70;99.90;;;;;;5051795;28;20240;-60
2022/10/07 12:01:39;;;;;;;5.65;3.80;;;23.80;99.90;;;;;;5051470;28;20257;-58
2022/10/07 12:04:37;;;;;;;6.72;4.15;;;24.00;99.90;;;;;;5051052;28;20680;-58
2022/10/07 12:07:43;;;;;;;13.55;4.30;;;24.00;99.90;;;;;;5051368;28;20226;-58
2022/10/07 12:10:37;;;;;;;6.68;4.45;;;24.00;99.90;;;;;;5045446;28;20252;-58
2022/10/07 12:13:36;;;;;;;7.78;5.10;;;23.90;99.90;;;;;;5051601;28;20209;-57
2022/10/07 12:16:48;;;;;;;6.15;4.70;;;23.90;99.90;;;;;;5050974;28;20202;-59
2022/10/07 12:19:18;;;;;;;6.65;4.32;;;24.00;99.90;;;;;;4951150;29;20313;-59
2022/10/07 12:22:17;;;;;;;12.27;4.60;;;24.00;99.90;;;;;;5029979;28;20228;-59
2022/10/07 12:24:46;;;;;;;7.35;4.35;;;24.10;99.90;;;;;;5050780;28;20213;-58
2022/10/07 12:27:17;;;;;;;8.57;4.45;;;24.20;99.90;;;;;;5051145;28;20705;-58
2022/10/07 12:29:57;;;;;;;15.63;4.57;;;24.20;99.90;;;;;;5051428;28;20220;-57
2022/10/07 12:32:56;;;;;;;7.18;5.47;;;24.30;99.90;;;;;;5051421;28;20276;-58
2022/10/07 12:35:41;;;;;;;12.40;4.88;;;24.50;99.90;;;;;;5050648;28;20209;-57
2022/10/07 12:38:15;;;;;;;6.88;4.22;;;24.60;99.90;;;;;;5051602;28;20213;-58
2022/10/07 12:40:46;;;;;;;9.73;4.85;;;24.60;99.90;;;;;;5052932;28;20225;-58
2022/10/07 12:43:24;;;;;;;10.10;4.47;;;24.70;99.90;;;;;;5055090;28;20209;-58
2022/10/07 12:45:52;;;;;;;6.30;4.32;;;24.80;99.90;;;;;;5054226;28;20209;-58
2022/10/07 12:48:22;;;;;;;8.10;4.35;;;24.90;99.90;;;;;;5055307;28;20228;-58
2022/10/07 12:50:55;;;;;;;7.68;4.72;;;25.00;99.90;;;;;;5055364;28;20232;-58
2022/10/07 12:53:25;;;;;;;6.32;4.60;;;25.00;99.90;;;;;;5055341;28;20209;-59
2022/10/07 12:55:54;;;;;;;7.07;4.15;;;24.90;99.90;;;;;;5054372;28;20582;-60
2022/10/07 13:01:39;;;;;;;12.50;4.93;;;24.90;99.90;;;;;;5055586;28;20270;-61
2022/10/07 13:04:30;;;;;;;10.52;4.53;;;24.90;99.90;;;;;;5054398;28;20619;-62
2022/10/07 13:07:57;;;;;;;6.70;4.55;;;25.00;99.90;;;;;;5054867;28;20705;-64
2022/10/07 13:10:48;;;;;;;6.78;4.85;;;25.10;99.90;;;;;;5054965;28;20225;-61
2022/10/07 13:13:20;;;;;;;10.25;4.35;;;25.10;99.90;;;;;;5055212;28;20308;-61
2022/10/07 13:15:52;;;;;;;8.95;5.90;;;25.10;99.90;;;;;;5054523;28;20695;-63
2022/10/07 13:18:24;;;;;;;6.90;4.55;;;25.00;99.90;;;;;;5054842;28;20213;-61
2022/10/07 13:21:05;;;;;;;5.30;4.35;;;25.10;99.90;;;;;;5055192;28;20222;-61
2022/10/07 13:23:33;;;;;;;5.63;4.28;;;25.10;99.90;;;;;;5055870;28;20209;-61
2022/10/07 13:26:02;;;;;;;11.10;4.68;;;24.90;99.90;;;;;;5054593;28;20212;-61